Norman, OK (73019)

4:42 AM CDT on August 04, 2015 (GMT -0500)
West Brooks Street | Change Station
CLOSE
Current Station
Personal Weather Station
Location: Norman, OK
Elevation: 1171 ft
Nearby Weather Stations

Elev 1171 ft 35.21 °N, 97.46 °W | Updated 44 seconds ago

Overcast
Overcast
77.9 °F
Feels Like 80 °F
N
-
Wind Variable Wind from North

Today
High -- | Low -- °F
--% Chance of Precip.
Yesterday
High -- | Low -- °F
Precip. -- in
6:40 AM 8:30 PM
Waning Gibbous, 79% visible
Pressure 29.94 in
Visibility 10.0 miles
Clouds Overcast 8000 ft
Heat Index 80 °F
Dew Point 69 °F
Humidity 73%
Rainfall -999.00 in
Snow Depth Not available.
UV 0 out of 12
Pollen 6.40 out of 12
Ozone Good
PM10 Good
Flu Activity Not available.
METAR KOUN 040935Z AUTO 00000KT 10SM OVC080 25/19 A2994 RMK AO2 LTG DSNT W AND NW

More Conditions Fewer Conditions

Pressure 29.94 in
Visibility 10.0 miles
Clouds Overcast 8000 ft
Heat Index 80 °F
Dew Point 69 °F
Humidity 73%
Rainfall -999.00 in
Snow Depth Not available.
UV 0 out of 12
Pollen 6.40 out of 12
Ozone Good
PM10 Good
Flu Activity Not available.
METAR KOUN 040935Z AUTO 00000KT 10SM OVC080 25/19 A2994 RMK AO2 LTG DSNT W AND NW

More Conditions Fewer Conditions

10-Day Weather Forecast

Almanac

Astronomy

Aug. 04, 2015 Rise Set
Actual Time 6:40 AM CDT 8:30 PM CDT
Civil Twilight 6:13 AM CDT 8:57 PM CDT
Nautical Twilight 5:39 AM CDT 9:31 PM CDT
Astronomical Twilight 5:03 AM CDT 10:06 PM CDT
Moon 11:27 PM CDT 11:25 AM CDT
Length of Visible Light 14h 44m
Length of Day
13h 49m
Tomorrow will be 1m 44s shorter.
Waning Gibbous, 79% of the Moon is Illuminated
Today
Waning Gibbous
Aug 6
Last Quarter
Aug 14
New
Aug 22
First Quarter
Aug 29
Full

Today's Extremes

State Highs State Lows

Community

WunderPhotos

Upload Photos

1,843,880 photos uploaded!

Nearby

Air Quality

  Air Quality AQ Index Pollutant
Yesterday Moderate
OZONE
Yesterday Good
PM10
Current Good
PM10
Current Good
OZONE
Tuesday Good
PM2.5
Tuesday Good
OZONE

Snow Depth

Station Depth Elevation
No new snow has been reported.

Earthquake Activity

City Distance Mag. Time & Date
Cherokee, Oklahoma 119 miles 3.1 3:58 AM CDT
2015-08-04
Healdton, Oklahoma 63 miles 2.8 9:44 PM CDT
2015-08-03
Cherokee, Oklahoma 115 miles 2.9 5:08 PM CDT
2015-08-03
Healdton, Oklahoma 64 miles 3.1 6:45 PM CDT
2015-08-02
Minimum magnitude displayed is 2.5.

Coastal Water Temperatures

Place Temperature
No Stations Reporting

Nearby Weather Stations